Time;durP1;ratioP1;P1;durP2;ratioP2;P2;SDS_P1;SDS_P2;PMS_P1;PMS_P2;Temp;Humidity;BMP_temperature;BMP_pressure;BME280_temperature;BME280_humidity;BME280_pressure;Samples;Min_cycle;Max_cycle;Signal;HPM_P1;HPM_P2
2023/07/26 00:00:53;;;;;;;5.93;2.75;;;;;;;-146.25;100.00;52163.41;2088801;28;38532;-71
2023/07/26 00:01:54;;;;;;;4.85;2.10;;;;;;;-146.25;100.00;52169.50;2088465;28;35566;-71
2023/07/26 00:02:56;;;;;;;8.45;2.67;;;;;;;-146.25;100.00;52157.34;2097054;28;26842;-71
2023/07/26 00:03:58;;;;;;;5.80;2.72;;;;;;;-146.25;100.00;52203.97;2095797;28;38422;-71
2023/07/26 00:05:00;;;;;;;5.30;2.28;;;;;;;-146.25;100.00;52185.72;2089275;28;20042;-71
2023/07/26 00:06:02;;;;;;;7.78;2.80;;;;;;;-146.25;100.00;52169.50;2087714;28;35833;-71
2023/07/26 00:07:04;;;;;;;4.70;2.38;;;;;;;-146.25;100.00;52197.88;2088331;28;36546;-71
2023/07/26 00:08:06;;;;;;;4.93;2.60;;;;;;;-146.25;100.00;52203.97;2088523;28;20063;-71
2023/07/26 00:09:11;;;;;;;5.55;2.55;;;;;;;-146.25;100.00;52189.78;2088767;28;34123;-71
2023/07/26 00:10:12;;;;;;;5.97;2.60;;;;;;;-146.25;100.00;52222.22;2088441;28;35867;-71
2023/07/26 00:11:14;;;;;;;4.55;2.35;;;;;;;-146.25;100.00;52185.72;2088354;28;33521;-71
2023/07/26 00:12:16;;;;;;;4.57;2.28;;;;;;;-146.25;100.00;52224.25;2088006;28;37671;-71
2023/07/26 00:13:18;;;;;;;5.93;2.80;;;;;;;-146.25;100.00;52199.91;2089612;28;20038;-71
2023/07/26 00:14:19;;;;;;;6.90;2.70;;;;;;;-146.25;100.00;52173.56;2088271;28;35727;-71
2023/07/26 00:15:21;;;;;;;7.28;2.50;;;;;;;-146.25;100.00;52199.91;2088274;28;37910;-71
2023/07/26 00:16:23;;;;;;;5.18;2.50;;;;;;;-146.25;100.00;52149.22;2088293;28;34252;-71
2023/07/26 00:17:25;;;;;;;3.92;2.00;;;;;;;-146.25;100.00;52193.81;2088779;28;38635;-71
2023/07/26 00:18:26;;;;;;;5.47;2.63;;;;;;;-146.25;100.00;52201.94;2089192;28;20045;-70
2023/07/26 00:19:28;;;;;;;7.35;2.47;;;;;;;-146.25;100.00;52195.84;2088079;28;35798;-71
2023/07/26 00:20:30;;;;;;;6.97;2.58;;;;;;;-146.25;100.00;52210.03;2087632;28;33366;-71
2023/07/26 00:21:32;;;;;;;7.93;2.17;;;;;;;-146.25;100.00;52157.34;2095952;28;33967;-71
2023/07/26 00:22:37;;;;;;;9.07;3.15;;;;;;;-146.25;100.00;52167.47;2088197;28;36028;-71
2023/07/26 00:23:39;;;;;;;6.82;2.55;;;;;;;-146.25;100.00;52206.00;2089016;28;20045;-71
2023/07/26 00:24:43;;;;;;;5.50;2.53;;;;;;;-146.25;100.00;52167.47;2087448;28;35933;-71
2023/07/26 00:25:47;;;;;;;7.57;2.92;;;;;;;-146.25;100.00;52179.63;2088183;28;35671;-71
2023/07/26 00:26:48;;;;;;;7.13;2.70;;;;;;;-146.25;100.00;52169.50;2088860;28;20089;-71
2023/07/26 00:27:52;;;;;;;8.88;3.03;;;;;;;-146.25;100.00;52179.63;2087495;28;20617;-71
2023/07/26 00:28:56;;;;;;;4.53;2.10;;;;;;;-146.25;100.00;52230.31;2080375;28;20046;-71
2023/07/26 00:29:58;;;;;;;5.82;2.60;;;;;;;-146.25;100.00;52161.38;2088899;28;20160;-71
2023/07/26 00:31:01;;;;;;;5.72;2.80;;;;;;;-146.25;100.00;52206.00;2088151;28;20152;-71
2023/07/26 00:32:04;;;;;;;7.70;3.08;;;;;;;-146.25;100.00;52179.63;2088418;28;23148;-70
2023/07/26 00:33:05;;;;;;;7.57;2.80;;;;;;;-146.25;100.00;52201.94;2088128;28;29964;-71
2023/07/26 00:34:07;;;;;;;6.13;3.00;;;;;;;-146.25;100.00;52197.88;2096666;28;23781;-71
2023/07/26 00:35:20;;;;;;;5.97;2.45;;;;;;;-146.25;100.00;52214.09;2096100;28;30049;-71
2023/07/26 00:36:22;;;;;;;4.43;2.28;;;;;;;-146.25;100.00;52193.81;2088732;28;31251;-71
2023/07/26 00:37:26;;;;;;;4.78;2.60;;;;;;;-146.25;100.00;52177.59;2088416;28;28305;-71
2023/07/26 00:38:27;;;;;;;6.38;2.70;;;;;;;-146.25;100.00;52197.88;2088745;28;27394;-71
2023/07/26 00:39:30;;;;;;;5.55;2.75;;;;;;;-146.25;100.00;52179.63;2096083;28;31758;-71
2023/07/26 00:40:32;;;;;;;7.25;2.75;;;;;;;-146.25;100.00;52181.66;2096107;28;31072;-71
2023/07/26 00:41:37;;;;;;;5.45;2.63;;;;;;;-146.25;100.00;52201.94;2095662;28;28654;-71
2023/07/26 00:42:38;;;;;;;5.38;2.47;;;;;;;-146.25;100.00;52214.09;2079411;28;29310;-72
2023/07/26 00:43:40;;;;;;;5.95;2.58;;;;;;;-146.25;100.00;52153.28;2071979;28;20050;-71
2023/07/26 00:44:42;;;;;;;4.32;2.38;;;;;;;-146.25;100.00;52169.50;2088200;28;35203;-72
2023/07/26 00:45:48;;;;;;;5.22;2.53;;;;;;;-146.25;100.00;52171.53;2080097;28;31315;-72
2023/07/26 00:46:50;;;;;;;5.38;2.60;;;;;;;-146.25;100.00;52206.00;2080371;28;28762;-71
2023/07/26 00:47:52;;;;;;;6.40;2.95;;;;;;;-146.25;100.00;52214.09;2079201;28;34633;-72
2023/07/26 00:48:57;;;;;;;6.22;2.53;;;;;;;-146.25;100.00;52173.56;2083497;28;32546;-71
2023/07/26 00:49:59;;;;;;;6.57;2.63;;;;;;;-146.25;100.00;52189.78;2087663;28;31360;-71
2023/07/26 00:51:02;;;;;;;7.05;2.45;;;;;;;-146.25;100.00;52206.00;2079716;28;23199;-72
2023/07/26 00:52:04;;;;;;;5.70;2.50;;;;;;;-146.25;100.00;52187.75;2088364;28;20081;-71
2023/07/26 00:53:12;;;;;;;5.97;2.45;;;;;;;-146.25;100.00;52183.69;2087766;28;31736;-71
2023/07/26 00:54:19;;;;;;;8.18;2.70;;;;;;;-146.25;100.00;52216.13;2071226;28;20061;-71
2023/07/26 00:55:21;;;;;;;7.10;2.75;;;;;;;-146.25;100.00;52185.72;2073451;28;30708;-71
2023/07/26 00:56:23;;;;;;;4.78;2.45;;;;;;;-146.25;100.00;52197.88;2088005;28;27728;-72
2023/07/26 00:57:25;;;;;;;5.57;2.28;;;;;;;-146.25;100.00;52193.81;2079325;28;27335;-71
2023/07/26 00:58:32;;;;;;;6.13;2.45;;;;;;;-146.25;100.00;52208.03;2080606;28;20451;-71
2023/07/26 00:59:36;;;;;;;7.75;2.67;;;;;;;-146.25;100.00;52177.59;2088529;28;26394;-71
2023/07/26 01:00:43;;;;;;;4.22;2.13;;;;;;;-146.25;100.00;52185.72;2095527;28;29157;-71
2023/07/26 01:01:48;;;;;;;5.32;2.83;;;;;;;-146.25;100.00;52236.41;2096986;28;20948;-71
2023/07/26 01:02:52;;;;;;;5.63;2.55;;;;;;;-146.25;100.00;52222.22;2087744;28;20095;-71
2023/07/26 01:03:54;;;;;;;7.35;2.50;;;;;;;-146.25;100.00;52187.75;2087860;28;27687;-71
2023/07/26 01:04:55;;;;;;;7.05;2.45;;;;;;;-146.25;100.00;52201.94;2088553;28;20127;-71
2023/07/26 01:06:40;;;;;;;7.13;2.65;;;;;;;-146.25;100.00;52212.06;2088507;28;20076;-71
2023/07/26 01:08:09;;;;;;;6.30;2.95;;;;;;;-146.25;100.00;52210.03;2088789;28;24687;-71
2023/07/26 01:09:55;;;;;;;4.75;2.53;;;;;;;-146.25;100.00;52212.06;2089281;28;20472;-72
2023/07/26 01:11:07;;;;;;;4.32;2.30;;;;;;;-146.25;100.00;52197.88;2087548;28;33092;-71
2023/07/26 01:12:36;;;;;;;9.05;3.00;;;;;;;-146.25;100.00;52197.88;2092477;28;20171;-71
2023/07/26 01:13:45;;;;;;;6.55;2.67;;;;;;;-146.25;100.00;52210.03;2079624;28;20046;-71
2023/07/26 01:15:15;;;;;;;3.92;2.60;;;;;;;-146.25;100.00;52214.09;2083395;28;20104;-71
2023/07/26 01:16:17;;;;;;;4.97;2.80;;;;;;;-146.25;100.00;52220.19;2089619;28;32868;-72
2023/07/26 01:17:19;;;;;;;4.85;2.78;;;;;;;-146.25;100.00;52185.72;2087796;28;20046;-71
2023/07/26 01:18:21;;;;;;;6.93;2.45;;;;;;;-146.25;100.00;52220.19;2079720;28;31320;-72
2023/07/26 01:19:23;;;;;;;7.30;2.70;;;;;;;-146.25;100.00;52193.81;2087399;28;27438;-72
2023/07/26 01:20:24;;;;;;;7.28;2.95;;;;;;;-146.25;100.00;52201.94;2096222;28;20930;-71
2023/07/26 01:21:32;;;;;;;6.13;2.83;;;;;;;-146.25;100.00;52208.03;2087373;28;31750;-71
2023/07/26 01:22:34;;;;;;;7.68;2.70;;;;;;;-146.25;100.00;52203.97;2088922;28;20049;-71
2023/07/26 01:23:38;;;;;;;6.75;2.55;;;;;;;-146.25;100.00;52147.19;2095574;28;27784;-71
2023/07/26 01:24:39;;;;;;;3.92;2.38;;;;;;;-146.25;100.00;52161.38;2095650;28;30829;-71
2023/07/26 01:25:41;;;;;;;4.43;2.58;;;;;;;-146.25;100.00;52183.69;2088427;28;21290;-72
2023/07/26 01:26:46;;;;;;;6.43;2.85;;;;;;;-146.25;100.00;52201.94;2088601;28;20032;-71
2023/07/26 01:27:47;;;;;;;7.43;2.90;;;;;;;-146.25;100.00;52183.69;2087961;28;23995;-72
2023/07/26 01:28:49;;;;;;;5.50;2.65;;;;;;;-146.25;100.00;52228.28;2089071;28;20040;-71
2023/07/26 01:29:54;;;;;;;5.20;2.42;;;;;;;-146.25;100.00;52201.94;2095555;28;31524;-71
2023/07/26 01:30:59;;;;;;;4.60;2.60;;;;;;;-146.25;100.00;52193.81;2095350;28;29746;-71
2023/07/26 01:32:02;;;;;;;6.75;3.10;;;;;;;-146.25;100.00;52206.00;2087050;28;27918;-71
2023/07/26 01:33:08;;;;;;;5.13;2.85;;;;;;;-146.25;100.00;52181.66;2079903;28;32066;-72
2023/07/26 01:34:12;;;;;;;7.53;3.15;;;;;;;-146.25;100.00;52181.66;2070796;28;21212;-71
2023/07/26 01:35:14;;;;;;;4.53;2.47;;;;;;;-146.25;100.00;52189.78;2064202;28;28613;-72
2023/07/26 01:36:19;;;;;;;10.30;2.92;;;;;;;-146.25;100.00;52206.00;2071470;28;28956;-71
2023/07/26 01:37:24;;;;;;;5.35;2.80;;;;;;;-146.25;100.00;52185.72;2072117;28;20193;-71
2023/07/26 01:38:27;;;;;;;4.68;2.33;;;;;;;-146.25;100.00;52203.97;2071946;28;32555;-71
2023/07/26 01:39:30;;;;;;;7.03;2.83;;;;;;;-146.25;100.00;52191.81;2070895;28;29472;-71
2023/07/26 01:40:33;;;;;;;5.97;2.70;;;;;;;-146.25;100.00;52218.16;2063810;28;27127;-71
2023/07/26 01:41:36;;;;;;;3.88;2.28;;;;;;;-146.25;100.00;52234.38;2079708;28;33348;-72
2023/07/26 01:42:39;;;;;;;5.38;2.83;;;;;;;-146.25;100.00;52187.75;2087686;28;20085;-72
2023/07/26 01:43:43;;;;;;;6.97;2.72;;;;;;;-146.25;100.00;52177.59;2087641;28;27549;-71
2023/07/26 01:44:45;;;;;;;5.30;2.60;;;;;;;-146.25;100.00;52197.88;2086703;28;25459;-72
2023/07/26 01:45:47;;;;;;;4.38;2.70;;;;;;;-146.25;100.00;52197.88;2087157;28;26768;-71
2023/07/26 01:46:54;;;;;;;4.80;2.40;;;;;;;-146.25;100.00;52208.03;2087205;28;35537;-71
2023/07/26 01:47:55;;;;;;;3.75;2.58;;;;;;;-146.25;100.00;52201.94;2087442;28;29706;-72
2023/07/26 01:49:00;;;;;;;7.32;3.00;;;;;;;-146.25;100.00;52264.78;2086513;28;28228;-71
2023/07/26 01:50:05;;;;;;;9.02;3.28;;;;;;;-146.25;100.00;52206.00;2079818;28;29911;-72
2023/07/26 01:51:08;;;;;;;5.43;2.35;;;;;;;-146.25;100.00;52201.94;2087130;28;22919;-71
2023/07/26 01:52:09;;;;;;;3.67;2.70;;;;;;;-146.25;100.00;52199.91;2079448;28;22440;-71
2023/07/26 01:53:11;;;;;;;5.85;2.38;;;;;;;-146.25;100.00;52183.69;2079011;28;33492;-71
2023/07/26 01:54:16;;;;;;;5.20;2.78;;;;;;;-146.25;100.00;52191.81;2088099;28;20075;-71
2023/07/26 01:55:21;;;;;;;6.25;2.35;;;;;;;-146.25;100.00;52220.19;2087839;28;20048;-72
2023/07/26 01:56:22;;;;;;;5.65;2.50;;;;;;;-146.25;100.00;52208.03;2087805;28;26176;-71
2023/07/26 01:57:25;;;;;;;3.90;2.28;;;;;;;-146.25;100.00;52185.72;2079446;28;20042;-71
2023/07/26 01:58:27;;;;;;;6.28;2.35;;;;;;;-146.25;100.00;52206.00;2079512;28;20835;-71
2023/07/26 01:59:29;;;;;;;6.38;2.70;;;;;;;-146.25;100.00;52218.16;2087675;28;20985;-71
2023/07/26 02:00:31;;;;;;;6.47;2.90;;;;;;;-146.25;100.00;52226.25;2083405;28;20093;-72
2023/07/26 02:01:32;;;;;;;5.65;2.65;;;;;;;-146.25;100.00;52226.25;2087402;28;31618;-72
2023/07/26 02:02:34;;;;;;;5.60;2.58;;;;;;;-146.25;100.00;52171.53;2096217;28;20053;-71
2023/07/26 02:03:36;;;;;;;5.70;2.33;;;;;;;-146.25;100.00;52177.59;2095801;28;20048;-70
2023/07/26 02:04:38;;;;;;;5.85;2.30;;;;;;;-146.25;100.00;52197.88;2096087;28;20172;-72
2023/07/26 02:05:47;;;;;;;4.32;2.50;;;;;;;-146.25;100.00;52212.06;2095769;28;20775;-71
2023/07/26 02:06:49;;;;;;;4.50;2.65;;;;;;;-146.25;100.00;52179.63;2079708;28;20832;-71
2023/07/26 02:07:51;;;;;;;6.50;2.25;;;;;;;-146.25;100.00;52210.03;2071322;28;20176;-71
2023/07/26 02:08:52;;;;;;;7.85;2.50;;;;;;;-146.25;100.00;52199.91;2071133;28;21448;-72
2023/07/26 02:09:54;;;;;;;5.25;2.40;;;;;;;-146.25;100.00;52214.09;2079294;28;20145;-71
2023/07/26 02:11:01;;;;;;;3.78;2.55;;;;;;;-146.25;100.00;52230.31;2079813;28;20132;-72
2023/07/26 02:12:05;;;;;;;6.80;2.67;;;;;;;-146.25;100.00;52193.81;2079898;28;20188;-71
2023/07/26 02:13:07;;;;;;;6.25;2.20;;;;;;;-146.25;100.00;52201.94;2070819;28;25688;-71
2023/07/26 02:14:12;;;;;;;6.32;2.75;;;;;;;-146.25;100.00;52189.78;2071664;28;24184;-72
2023/07/26 02:15:13;;;;;;;7.10;2.63;;;;;;;-146.25;100.00;52169.50;2086966;28;24137;-71
2023/07/26 02:16:15;;;;;;;3.85;2.58;;;;;;;-146.25;100.00;52214.09;2080338;28;20104;-71
2023/07/26 02:17:17;;;;;;;7.75;2.30;;;;;;;-146.25;100.00;52191.81;2079344;28;23359;-71
2023/07/26 02:18:22;;;;;;;7.45;2.75;;;;;;;-146.25;100.00;52210.03;2075861;28;21319;-71
2023/07/26 02:19:24;;;;;;;5.22;2.60;;;;;;;-146.25;100.00;52222.22;2087625;28;21231;-70
2023/07/26 02:20:26;;;;;;;3.92;2.33;;;;;;;-146.25;100.00;52206.00;2087850;28;21266;-71
2023/07/26 02:21:29;;;;;;;5.22;2.38;;;;;;;-146.25;100.00;52169.50;2087837;28;20037;-71
2023/07/26 02:22:31;;;;;;;4.50;2.55;;;;;;;-146.25;100.00;52165.44;2095897;28;20089;-71
2023/07/26 02:23:33;;;;;;;5.68;2.35;;;;;;;-146.25;100.00;52193.81;2096045;28;20041;-71
2023/07/26 02:24:34;;;;;;;4.82;2.60;;;;;;;-146.25;100.00;52183.69;2095373;28;29456;-71
2023/07/26 02:25:39;;;;;;;5.90;2.80;;;;;;;-146.25;100.00;52197.88;2087163;28;23879;-71
2023/07/26 02:26:40;;;;;;;6.18;2.92;;;;;;;-146.25;100.00;52236.41;2075557;28;20041;-71
2023/07/26 02:27:44;;;;;;;10.00;3.10;;;;;;;-146.25;100.00;52210.03;2079508;28;20997;-71
2023/07/26 02:28:45;;;;;;;4.68;2.90;;;;;;;-146.25;100.00;52175.56;2079251;28;20058;-73
2023/07/26 02:29:47;;;;;;;4.03;2.70;;;;;;;-146.25;100.00;52191.81;2079054;28;20182;-71
2023/07/26 02:30:49;;;;;;;5.45;2.38;;;;;;;-146.25;100.00;52167.47;2079311;28;20046;-71
2023/07/26 02:31:51;;;;;;;6.03;2.53;;;;;;;-146.25;100.00;52191.81;2071206;28;20057;-71
2023/07/26 02:32:53;;;;;;;6.75;2.30;;;;;;;-146.25;100.00;52216.13;2071330;28;20919;-71
2023/07/26 02:33:55;;;;;;;4.10;2.65;;;;;;;-146.25;100.00;52185.72;2079029;28;20827;-71
2023/07/26 02:34:57;;;;;;;10.88;2.80;;;;;;;-146.25;100.00;52210.03;2086806;28;33696;-71
2023/07/26 02:36:01;;;;;;;4.85;2.40;;;;;;;-146.25;100.00;52195.84;2087456;28;27091;-71
2023/07/26 02:37:04;;;;;;;6.70;2.67;;;;;;;-146.25;100.00;52193.81;2080085;28;20041;-71
2023/07/26 02:38:06;;;;;;;8.68;3.28;;;;;;;-146.25;100.00;52232.34;2078649;28;30803;-71
2023/07/26 02:39:07;;;;;;;9.65;2.72;;;;;;;-146.25;100.00;52218.16;2079623;28;20884;-71
2023/07/26 02:40:12;;;;;;;4.55;2.60;;;;;;;-146.25;100.00;52197.88;2080067;28;20038;-71
2023/07/26 02:41:14;;;;;;;6.93;3.25;;;;;;;-146.25;100.00;52226.25;2071489;28;20124;-71
2023/07/26 02:42:18;;;;;;;8.38;3.10;;;;;;;-146.25;100.00;52201.94;2078919;28;20092;-71
2023/07/26 02:43:20;;;;;;;5.05;2.65;;;;;;;-146.25;100.00;52183.69;2078907;28;30855;-71
2023/07/26 02:44:36;;;;;;;8.10;2.95;;;;;;;-146.25;100.00;52203.97;2083016;28;23915;-70
2023/07/26 02:45:37;;;;;;;5.93;3.03;;;;;;;-146.25;100.00;52206.00;2086736;28;27252;-71
2023/07/26 02:46:39;;;;;;;5.75;3.15;;;;;;;-146.25;100.00;52189.78;2087524;28;21177;-71
2023/07/26 02:47:41;;;;;;;7.80;3.15;;;;;;;-146.25;100.00;52228.28;2087015;28;24357;-71
2023/07/26 02:48:45;;;;;;;4.60;2.90;;;;;;;-146.25;100.00;52240.47;2087327;28;20929;-71
2023/07/26 02:49:47;;;;;;;4.50;2.60;;;;;;;-146.25;100.00;52218.16;2095242;28;30675;-70
2023/07/26 02:50:48;;;;;;;7.32;2.97;;;;;;;-146.25;100.00;52226.25;2095469;28;24434;-71
2023/07/26 02:51:50;;;;;;;4.30;2.42;;;;;;;-146.25;100.00;52197.88;2095400;28;27963;-71
2023/07/26 02:52:52;;;;;;;5.70;2.50;;;;;;;-146.25;100.00;52222.22;2078390;28;32350;-71
2023/07/26 02:53:54;;;;;;;4.15;2.67;;;;;;;-146.25;100.00;52171.53;2079116;28;26496;-71
2023/07/26 02:54:55;;;;;;;6.72;2.92;;;;;;;-146.25;100.00;52214.09;2095386;28;26153;-70
2023/07/26 02:55:57;;;;;;;5.35;2.70;;;;;;;-146.25;100.00;52171.53;2095196;28;28635;-71
2023/07/26 02:56:59;;;;;;;5.72;3.00;;;;;;;-146.25;100.00;52230.31;2087008;28;32378;-71
2023/07/26 02:58:01;;;;;;;5.78;2.95;;;;;;;-146.25;100.00;52193.81;2087432;28;20764;-71
2023/07/26 02:59:03;;;;;;;5.93;2.95;;;;;;;-146.25;100.00;52236.41;2088053;28;26211;-69
2023/07/26 03:00:07;;;;;;;7.60;2.92;;;;;;;-146.25;100.00;52187.75;2087621;28;24271;-70
2023/07/26 03:01:09;;;;;;;8.38;2.80;;;;;;;-146.25;100.00;52177.59;2088467;28;20046;-71
2023/07/26 03:02:10;;;;;;;7.55;3.38;;;;;;;-146.25;100.00;52203.97;2095721;28;20920;-71
2023/07/26 03:03:12;;;;;;;7.50;3.20;;;;;;;-146.25;100.00;52193.81;2087431;28;31947;-71
2023/07/26 03:04:14;;;;;;;4.35;2.72;;;;;;;-146.25;100.00;52230.31;2087120;28;23303;-71
2023/07/26 03:05:16;;;;;;;8.27;3.50;;;;;;;-146.25;100.00;52193.81;2087756;28;27792;-71
2023/07/26 03:06:18;;;;;;;6.95;2.85;;;;;;;-146.25;100.00;52226.25;2087513;28;20224;-71
2023/07/26 03:07:20;;;;;;;6.65;3.15;;;;;;;-146.25;100.00;52195.84;2087646;28;20037;-71
2023/07/26 03:08:22;;;;;;;5.88;2.78;;;;;;;-146.25;100.00;52203.97;2095531;28;27044;-71
2023/07/26 03:09:23;;;;;;;8.10;3.67;;;;;;;-146.25;100.00;52230.31;2095249;28;30191;-71
2023/07/26 03:10:25;;;;;;;6.15;3.25;;;;;;;-146.25;100.00;52191.81;2088297;28;20111;-71
2023/07/26 03:11:27;;;;;;;6.30;3.00;;;;;;;-146.25;100.00;52203.97;2087405;28;31854;-73
2023/07/26 03:12:29;;;;;;;4.32;3.10;;;;;;;-146.25;100.00;52222.22;2095367;28;28935;-71
2023/07/26 03:13:30;;;;;;;7.45;3.13;;;;;;;-146.25;100.00;52224.25;2095784;28;20930;-71
2023/07/26 03:14:32;;;;;;;5.15;3.08;;;;;;;-146.25;100.00;52220.19;2088066;28;20219;-71
2023/07/26 03:15:39;;;;;;;4.85;3.25;;;;;;;-146.25;100.00;52260.72;2087951;28;25958;-71
2023/07/26 03:16:43;;;;;;;6.88;2.80;;;;;;;-146.25;100.00;52181.66;2087495;28;25882;-71
2023/07/26 03:17:45;;;;;;;9.15;3.10;;;;;;;-146.25;100.00;52210.03;2080016;28;38234;-71
2023/07/26 03:18:48;;;;;;;6.18;2.88;;;;;;;-146.25;100.00;52185.72;2088609;28;20080;-71
2023/07/26 03:19:50;;;;;;;10.70;3.42;;;;;;;-146.25;100.00;52224.25;2080204;28;32776;-70
2023/07/26 03:20:52;;;;;;;5.47;3.00;;;;;;;-146.25;100.00;52206.00;2088588;28;28730;-71
2023/07/26 03:21:54;;;;;;;3.85;2.83;;;;;;;-146.25;100.00;52212.06;2089522;28;20819;-70
2023/07/26 03:22:56;;;;;;;4.05;2.95;;;;;;;-146.25;100.00;52197.88;2097024;28;20924;-71
2023/07/26 03:23:57;;;;;;;8.75;3.33;;;;;;;-146.25;100.00;52197.88;2096332;28;27671;-71
2023/07/26 03:24:59;;;;;;;5.50;2.78;;;;;;;-146.25;100.00;52218.16;2088982;28;26847;-71
2023/07/26 03:26:01;;;;;;;4.32;2.70;;;;;;;-146.25;100.00;52193.81;2096453;28;28008;-71
2023/07/26 03:27:03;;;;;;;5.82;3.00;;;;;;;-146.25;100.00;52246.53;2096677;28;20187;-71
2023/07/26 03:28:05;;;;;;;5.70;3.25;;;;;;;-146.25;100.00;52185.72;2096561;28;32348;-71
2023/07/26 03:29:07;;;;;;;7.13;2.88;;;;;;;-146.25;100.00;52161.38;2089318;28;25620;-71
2023/07/26 03:30:12;;;;;;;7.85;3.20;;;;;;;-146.25;100.00;52234.38;2097132;28;20069;-71
2023/07/26 03:31:14;;;;;;;4.30;3.00;;;;;;;-146.25;100.00;52201.94;2096301;28;28633;-71
2023/07/26 03:32:16;;;;;;;6.28;3.20;;;;;;;-146.25;100.00;52226.25;2089544;28;20042;-71
2023/07/26 03:33:21;;;;;;;7.22;3.25;;;;;;;-146.25;100.00;52232.34;2088419;28;32672;-71
2023/07/26 03:34:23;;;;;;;5.60;3.13;;;;;;;-146.25;100.00;52216.13;2088800;28;20042;-70
2023/07/26 03:35:25;;;;;;;6.65;3.20;;;;;;;-146.25;100.00;52195.84;2089103;28;27572;-71
2023/07/26 03:36:31;;;;;;;5.55;3.13;;;;;;;-146.25;100.00;52185.72;2088860;28;20100;-71
2023/07/26 03:37:33;;;;;;;5.03;2.95;;;;;;;-146.25;100.00;52193.81;2081102;28;20042;-71
2023/07/26 03:38:34;;;;;;;4.78;3.33;;;;;;;-146.25;100.00;52208.03;2088363;28;31695;-71
2023/07/26 03:39:38;;;;;;;9.40;3.45;;;;;;;-146.25;100.00;52246.53;2088975;28;29492;-71
2023/07/26 03:40:40;;;;;;;5.45;3.42;;;;;;;-146.25;100.00;52238.44;2096388;28;27331;-71
2023/07/26 03:41:44;;;;;;;6.95;3.80;;;;;;;-146.25;100.00;52173.56;2096482;28;27142;-71
2023/07/26 03:42:46;;;;;;;6.55;3.17;;;;;;;-146.25;100.00;52246.53;2089340;28;20077;-71
2023/07/26 03:43:48;;;;;;;5.55;3.25;;;;;;;-146.25;100.00;52214.09;2088948;28;20091;-71
2023/07/26 03:44:50;;;;;;;5.10;3.58;;;;;;;-146.25;100.00;52246.53;2096575;28;29733;-71
2023/07/26 03:45:52;;;;;;;5.30;3.45;;;;;;;-146.25;100.00;52210.03;2088481;28;20060;-71
2023/07/26 03:46:54;;;;;;;7.82;3.65;;;;;;;-146.25;100.00;52181.66;2088249;28;33240;-71
2023/07/26 03:47:56;;;;;;;7.53;3.55;;;;;;;-146.25;100.00;52224.25;2089443;28;20123;-71
2023/07/26 03:48:58;;;;;;;5.30;3.08;;;;;;;-146.25;100.00;52220.19;2088531;28;30957;-71
2023/07/26 03:50:00;;;;;;;9.05;3.67;;;;;;;-146.25;100.00;52230.31;2089226;28;20130;-70
2023/07/26 03:51:03;;;;;;;5.72;3.22;;;;;;;-146.25;100.00;52216.13;2088545;28;30930;-71
2023/07/26 03:52:08;;;;;;;4.90;3.65;;;;;;;-146.25;100.00;52222.22;2088686;28;27396;-70
2023/07/26 03:53:09;;;;;;;5.63;3.15;;;;;;;-146.25;100.00;52210.03;2088201;28;25151;-71
2023/07/26 03:54:11;;;;;;;5.22;3.13;;;;;;;-146.25;100.00;52252.63;2080306;28;20058;-71
2023/07/26 03:55:14;;;;;;;7.50;3.30;;;;;;;-146.25;100.00;52220.19;2087893;28;31671;-71
2023/07/26 03:56:17;;;;;;;7.18;3.15;;;;;;;-146.25;100.00;52201.94;2088512;28;20100;-71
2023/07/26 03:57:21;;;;;;;6.05;3.50;;;;;;;-146.25;100.00;52187.75;2088876;28;20168;-71
2023/07/26 03:58:23;;;;;;;7.30;3.58;;;;;;;-146.25;100.00;52222.22;2087094;28;32644;-71
2023/07/26 03:59:25;;;;;;;7.03;3.50;;;;;;;-146.25;100.00;52208.03;2088274;28;26038;-71
2023/07/26 04:00:26;;;;;;;6.28;3.58;;;;;;;-146.25;100.00;52169.50;2088260;28;32010;-71
2023/07/26 04:01:31;;;;;;;5.47;3.22;;;;;;;-146.25;100.00;52208.03;2089654;28;22159;-71
2023/07/26 04:02:33;;;;;;;5.65;3.90;;;;;;;-146.25;100.00;52214.09;2096744;28;20941;-71
2023/07/26 04:03:37;;;;;;;7.00;3.42;;;;;;;-146.25;100.00;52222.22;2095812;28;28671;-71
2023/07/26 04:04:39;;;;;;;8.55;4.32;;;;;;;-146.25;100.00;52222.22;2088692;28;28417;-71
2023/07/26 04:05:41;;;;;;;6.28;3.85;;;;;;;-146.25;100.00;52179.63;2095985;28;36212;-71
2023/07/26 04:06:43;;;;;;;7.32;3.95;;;;;;;-146.25;100.00;52197.88;2087948;28;20057;-71
2023/07/26 04:07:45;;;;;;;5.00;3.53;;;;;;;-146.25;100.00;52181.66;2079608;28;26697;-71
2023/07/26 04:08:46;;;;;;;6.85;4.03;;;;;;;-146.25;100.00;52230.31;2079275;28;36503;-71
2023/07/26 04:09:51;;;;;;;7.22;4.13;;;;;;;-146.25;100.00;52210.03;2088075;28;30741;-71
2023/07/26 04:10:52;;;;;;;7.03;3.88;;;;;;;-146.25;100.00;52240.47;2088077;28;34395;-71
2023/07/26 04:11:58;;;;;;;5.13;3.33;;;;;;;-146.25;100.00;52191.81;2088582;28;31511;-70
2023/07/26 04:13:00;;;;;;;8.98;4.00;;;;;;;-146.25;100.00;52238.44;2089154;28;20037;-71
2023/07/26 04:14:01;;;;;;;5.43;3.83;;;;;;;-146.25;100.00;52201.94;2088592;28;33332;-71
2023/07/26 04:15:04;;;;;;;7.00;3.92;;;;;;;-146.25;100.00;52189.78;2088281;28;33229;-71
2023/07/26 04:16:14;;;;;;;6.32;3.53;;;;;;;-146.25;100.00;52206.00;2089147;28;20894;-71
2023/07/26 04:17:17;;;;;;;5.18;3.47;;;;;;;-146.25;100.00;52242.50;2088211;28;37732;-70
2023/07/26 04:18:19;;;;;;;7.75;3.67;;;;;;;-146.25;100.00;52228.28;2088587;28;32319;-70
2023/07/26 04:19:21;;;;;;;7.72;3.97;;;;;;;-146.25;100.00;52177.59;2087709;28;34551;-71
2023/07/26 04:20:23;;;;;;;9.05;3.70;;;;;;;-146.25;100.00;52232.34;2087552;28;35020;-70
2023/07/26 04:21:24;;;;;;;6.20;3.78;;;;;;;-146.25;100.00;52201.94;2087819;28;35005;-70
2023/07/26 04:22:26;;;;;;;5.50;4.10;;;;;;;-146.25;100.00;52210.03;2087963;28;33780;-70
2023/07/26 04:23:28;;;;;;;6.88;3.80;;;;;;;-146.25;100.00;52240.47;2096017;28;36533;-70
2023/07/26 04:24:30;;;;;;;8.07;4.00;;;;;;;-146.25;100.00;52234.38;2088448;28;35163;-70
2023/07/26 04:25:31;;;;;;;6.95;3.55;;;;;;;-146.25;100.00;52258.72;2088354;28;33887;-71
2023/07/26 04:26:34;;;;;;;6.13;3.67;;;;;;;-146.25;100.00;52220.19;2088257;28;33720;-70
2023/07/26 04:27:35;;;;;;;10.23;3.63;;;;;;;-146.25;100.00;52230.31;2088551;28;33848;-70
2023/07/26 04:28:38;;;;;;;6.22;3.55;;;;;;;-146.25;100.00;52222.22;2088234;28;20046;-71
2023/07/26 04:29:42;;;;;;;4.68;3.67;;;;;;;-146.25;100.00;52187.75;2086906;28;34013;-71
2023/07/26 04:30:44;;;;;;;6.70;3.58;;;;;;;-146.25;100.00;52218.16;2087527;28;32710;-71
2023/07/26 04:31:48;;;;;;;5.57;3.47;;;;;;;-146.25;100.00;52244.50;2097068;28;20041;-71
2023/07/26 04:32:50;;;;;;;4.65;3.55;;;;;;;-146.25;100.00;52218.16;2095385;28;36301;-71
2023/07/26 04:33:54;;;;;;;4.68;3.30;;;;;;;-146.25;100.00;52236.41;2087884;28;25256;-71
2023/07/26 04:34:58;;;;;;;6.18;3.40;;;;;;;-146.25;100.00;52191.81;2087435;28;38716;-71
2023/07/26 04:36:01;;;;;;;7.57;3.75;;;;;;;-146.25;100.00;52254.66;2096986;28;20194;-71
2023/07/26 04:37:02;;;;;;;8.30;4.00;;;;;;;-146.25;100.00;52157.34;2095779;28;37618;-71
2023/07/26 04:38:04;;;;;;;4.85;3.30;;;;;;;-146.25;100.00;52208.03;2096107;28;34858;-71
2023/07/26 04:39:06;;;;;;;5.15;3.35;;;;;;;-146.25;100.00;52256.69;2088521;28;29256;-71
2023/07/26 04:40:08;;;;;;;8.35;3.45;;;;;;;-146.25;100.00;52195.84;2088238;28;35334;-71
2023/07/26 04:41:10;;;;;;;5.50;3.67;;;;;;;-146.25;100.00;52262.75;2087696;28;35406;-71
2023/07/26 04:42:12;;;;;;;5.97;3.60;;;;;;;-146.25;100.00;52242.50;2087996;28;34167;-71
2023/07/26 04:43:21;;;;;;;6.38;3.88;;;;;;;-146.25;100.00;52262.75;2088077;28;41228;-71
2023/07/26 04:44:22;;;;;;;6.15;3.42;;;;;;;-146.25;100.00;52220.19;2088384;28;33046;-71
2023/07/26 04:45:24;;;;;;;4.65;3.20;;;;;;;-146.25;100.00;52177.59;2088331;28;35898;-70
2023/07/26 04:46:26;;;;;;;6.40;3.58;;;;;;;-146.25;100.00;52226.25;2088379;28;34233;-71
2023/07/26 04:47:28;;;;;;;5.97;3.55;;;;;;;-146.25;100.00;52236.41;2087007;28;36015;-70
2023/07/26 04:48:31;;;;;;;6.72;3.80;;;;;;;-146.25;100.00;52222.22;2088139;28;40262;-71